sensor_id;sensor_type;location;lat;lon;timestamp;P1;durP1;ratioP1;P2;durP2;ratioP2
11064;SDS011;5585;52.530;7.320;2022-12-24T00:00:24;8.00;;;4.07;;
11064;SDS011;5585;52.530;7.320;2022-12-24T00:02:51;9.73;;;4.03;;
11064;SDS011;5585;52.530;7.320;2022-12-24T00:05:17;7.10;;;4.17;;
11064;SDS011;5585;52.530;7.320;2022-12-24T00:07:45;7.93;;;4.10;;
11064;SDS011;5585;52.530;7.320;2022-12-24T00:10:12;10.43;;;4.20;;
11064;SDS011;5585;52.530;7.320;2022-12-24T00:12:38;8.67;;;3.93;;
11064;SDS011;5585;52.530;7.320;2022-12-24T00:15:05;12.47;;;4.27;;
11064;SDS011;5585;52.530;7.320;2022-12-24T00:17:32;10.97;;;3.93;;
11064;SDS011;5585;52.530;7.320;2022-12-24T00:19:59;9.90;;;4.10;;
11064;SDS011;5585;52.530;7.320;2022-12-24T00:22:25;10.27;;;3.77;;
11064;SDS011;5585;52.530;7.320;2022-12-24T00:24:56;10.00;;;4.23;;
11064;SDS011;5585;52.530;7.320;2022-12-24T00:27:23;10.43;;;4.10;;
11064;SDS011;5585;52.530;7.320;2022-12-24T00:29:49;6.60;;;3.07;;
11064;SDS011;5585;52.530;7.320;2022-12-24T00:32:16;6.57;;;3.33;;
11064;SDS011;5585;52.530;7.320;2022-12-24T00:34:44;8.07;;;3.33;;
11064;SDS011;5585;52.530;7.320;2022-12-24T00:37:10;8.07;;;3.93;;
11064;SDS011;5585;52.530;7.320;2022-12-24T00:39:37;10.33;;;3.33;;
11064;SDS011;5585;52.530;7.320;2022-12-24T00:42:05;8.40;;;3.60;;
11064;SDS011;5585;52.530;7.320;2022-12-24T00:44:31;9.17;;;3.30;;
11064;SDS011;5585;52.530;7.320;2022-12-24T00:46:58;5.00;;;2.50;;
11064;SDS011;5585;52.530;7.320;2022-12-24T00:49:24;6.67;;;2.30;;
11064;SDS011;5585;52.530;7.320;2022-12-24T00:51:51;7.40;;;3.20;;
11064;SDS011;5585;52.530;7.320;2022-12-24T00:54:17;7.37;;;2.63;;
11064;SDS011;5585;52.530;7.320;2022-12-24T00:56:44;4.47;;;2.40;;
11064;SDS011;5585;52.530;7.320;2022-12-24T00:59:12;4.80;;;2.30;;
11064;SDS011;5585;52.530;7.320;2022-12-24T01:01:38;5.20;;;2.40;;
11064;SDS011;5585;52.530;7.320;2022-12-24T01:04:05;3.83;;;2.30;;
11064;SDS011;5585;52.530;7.320;2022-12-24T01:06:49;7.40;;;3.30;;
11064;SDS011;5585;52.530;7.320;2022-12-24T01:09:15;6.03;;;3.00;;
11064;SDS011;5585;52.530;7.320;2022-12-24T01:11:42;7.33;;;3.20;;
11064;SDS011;5585;52.530;7.320;2022-12-24T01:14:08;9.57;;;3.33;;
11064;SDS011;5585;52.530;7.320;2022-12-24T01:16:36;10.43;;;4.33;;
11064;SDS011;5585;52.530;7.320;2022-12-24T01:19:03;11.50;;;4.27;;
11064;SDS011;5585;52.530;7.320;2022-12-24T01:21:29;10.70;;;4.13;;
11064;SDS011;5585;52.530;7.320;2022-12-24T01:23:56;16.73;;;4.40;;
11064;SDS011;5585;52.530;7.320;2022-12-24T01:26:22;16.67;;;5.17;;
11064;SDS011;5585;52.530;7.320;2022-12-24T01:28:49;16.17;;;4.37;;
11064;SDS011;5585;52.530;7.320;2022-12-24T01:31:16;12.33;;;4.50;;
11064;SDS011;5585;52.530;7.320;2022-12-24T01:33:47;12.23;;;4.20;;
11064;SDS011;5585;52.530;7.320;2022-12-24T01:36:14;16.13;;;5.03;;
11064;SDS011;5585;52.530;7.320;2022-12-24T01:38:40;16.10;;;4.43;;
11064;SDS011;5585;52.530;7.320;2022-12-24T01:41:12;15.50;;;4.20;;
11064;SDS011;5585;52.530;7.320;2022-12-24T01:43:56;15.30;;;4.37;;
11064;SDS011;5585;52.530;7.320;2022-12-24T01:46:23;10.27;;;3.90;;
11064;SDS011;5585;52.530;7.320;2022-12-24T01:48:52;16.97;;;4.30;;
11064;SDS011;5585;52.530;7.320;2022-12-24T01:51:22;9.90;;;3.40;;
11064;SDS011;5585;52.530;7.320;2022-12-24T01:53:51;10.30;;;3.50;;
11064;SDS011;5585;52.530;7.320;2022-12-24T01:56:18;12.63;;;3.13;;
11064;SDS011;5585;52.530;7.320;2022-12-24T01:58:46;14.17;;;3.23;;
11064;SDS011;5585;52.530;7.320;2022-12-24T02:01:13;10.20;;;2.97;;
11064;SDS011;5585;52.530;7.320;2022-12-24T02:03:40;11.13;;;3.07;;
11064;SDS011;5585;52.530;7.320;2022-12-24T02:06:08;16.93;;;4.13;;
11064;SDS011;5585;52.530;7.320;2022-12-24T02:08:36;10.73;;;3.37;;
11064;SDS011;5585;52.530;7.320;2022-12-24T02:11:09;12.80;;;3.77;;
11064;SDS011;5585;52.530;7.320;2022-12-24T02:13:36;15.17;;;3.73;;
11064;SDS011;5585;52.530;7.320;2022-12-24T02:16:05;12.43;;;3.43;;
11064;SDS011;5585;52.530;7.320;2022-12-24T02:18:34;13.70;;;3.50;;
11064;SDS011;5585;52.530;7.320;2022-12-24T02:21:19;20.73;;;3.67;;
11064;SDS011;5585;52.530;7.320;2022-12-24T02:26:33;13.20;;;3.00;;
11064;SDS011;5585;52.530;7.320;2022-12-24T02:29:15;18.17;;;3.63;;
11064;SDS011;5585;52.530;7.320;2022-12-24T02:31:45;15.73;;;3.70;;
11064;SDS011;5585;52.530;7.320;2022-12-24T02:34:17;19.20;;;3.50;;
11064;SDS011;5585;52.530;7.320;2022-12-24T02:36:45;19.80;;;3.93;;
11064;SDS011;5585;52.530;7.320;2022-12-24T02:39:14;17.23;;;3.77;;
11064;SDS011;5585;52.530;7.320;2022-12-24T02:41:42;17.47;;;3.77;;
11064;SDS011;5585;52.530;7.320;2022-12-24T02:44:29;19.27;;;4.30;;
11064;SDS011;5585;52.530;7.320;2022-12-24T02:46:58;15.30;;;3.03;;
11064;SDS011;5585;52.530;7.320;2022-12-24T02:49:25;13.30;;;3.50;;
11064;SDS011;5585;52.530;7.320;2022-12-24T02:51:52;14.77;;;3.83;;
11064;SDS011;5585;52.530;7.320;2022-12-24T02:54:18;15.13;;;3.10;;
11064;SDS011;5585;52.530;7.320;2022-12-24T02:56:49;14.40;;;3.47;;
11064;SDS011;5585;52.530;7.320;2022-12-24T02:59:26;14.37;;;3.60;;
11064;SDS011;5585;52.530;7.320;2022-12-24T03:01:59;17.33;;;3.27;;
11064;SDS011;5585;52.530;7.320;2022-12-24T03:04:30;20.60;;;4.17;;
11064;SDS011;5585;52.530;7.320;2022-12-24T03:07:11;10.00;;;2.70;;
11064;SDS011;5585;52.530;7.320;2022-12-24T03:09:42;21.10;;;3.70;;
11064;SDS011;5585;52.530;7.320;2022-12-24T03:12:12;13.73;;;2.90;;
11064;SDS011;5585;52.530;7.320;2022-12-24T03:14:40;13.03;;;3.13;;
11064;SDS011;5585;52.530;7.320;2022-12-24T03:17:08;14.50;;;3.30;;
11064;SDS011;5585;52.530;7.320;2022-12-24T03:19:35;17.00;;;3.27;;
11064;SDS011;5585;52.530;7.320;2022-12-24T03:22:03;18.17;;;3.67;;
11064;SDS011;5585;52.530;7.320;2022-12-24T03:24:31;16.67;;;3.23;;
11064;SDS011;5585;52.530;7.320;2022-12-24T03:26:57;13.50;;;3.07;;
11064;SDS011;5585;52.530;7.320;2022-12-24T03:29:24;18.10;;;4.33;;
11064;SDS011;5585;52.530;7.320;2022-12-24T03:31:51;17.00;;;3.87;;
11064;SDS011;5585;52.530;7.320;2022-12-24T03:34:19;13.73;;;3.40;;
11064;SDS011;5585;52.530;7.320;2022-12-24T03:36:46;19.70;;;4.03;;
11064;SDS011;5585;52.530;7.320;2022-12-24T03:39:13;16.83;;;3.93;;
11064;SDS011;5585;52.530;7.320;2022-12-24T03:41:40;16.03;;;2.63;;
11064;SDS011;5585;52.530;7.320;2022-12-24T03:44:06;18.10;;;3.60;;
11064;SDS011;5585;52.530;7.320;2022-12-24T03:46:33;14.30;;;3.37;;
11064;SDS011;5585;52.530;7.320;2022-12-24T03:48:59;17.67;;;4.00;;
11064;SDS011;5585;52.530;7.320;2022-12-24T03:51:27;21.20;;;4.43;;
11064;SDS011;5585;52.530;7.320;2022-12-24T03:53:54;17.33;;;3.23;;
11064;SDS011;5585;52.530;7.320;2022-12-24T03:56:21;13.40;;;3.60;;
11064;SDS011;5585;52.530;7.320;2022-12-24T03:58:47;23.27;;;4.27;;
11064;SDS011;5585;52.530;7.320;2022-12-24T04:01:14;15.87;;;3.33;;
11064;SDS011;5585;52.530;7.320;2022-12-24T04:03:41;16.50;;;3.67;;
11064;SDS011;5585;52.530;7.320;2022-12-24T04:06:08;16.00;;;3.60;;
11064;SDS011;5585;52.530;7.320;2022-12-24T04:08:36;16.77;;;3.50;;
11064;SDS011;5585;52.530;7.320;2022-12-24T04:11:03;14.47;;;3.70;;
11064;SDS011;5585;52.530;7.320;2022-12-24T04:13:30;15.40;;;3.47;;
11064;SDS011;5585;52.530;7.320;2022-12-24T04:15:57;16.07;;;3.53;;
11064;SDS011;5585;52.530;7.320;2022-12-24T04:18:24;18.87;;;4.57;;
11064;SDS011;5585;52.530;7.320;2022-12-24T04:20:51;16.00;;;4.30;;
11064;SDS011;5585;52.530;7.320;2022-12-24T04:23:17;21.27;;;4.63;;
11064;SDS011;5585;52.530;7.320;2022-12-24T04:25:45;28.33;;;4.77;;
11064;SDS011;5585;52.530;7.320;2022-12-24T04:28:12;18.43;;;4.37;;
11064;SDS011;5585;52.530;7.320;2022-12-24T04:30:38;17.00;;;3.40;;
11064;SDS011;5585;52.530;7.320;2022-12-24T04:33:05;18.87;;;4.20;;
11064;SDS011;5585;52.530;7.320;2022-12-24T04:35:32;22.37;;;4.53;;
11064;SDS011;5585;52.530;7.320;2022-12-24T04:37:58;26.20;;;4.70;;
11064;SDS011;5585;52.530;7.320;2022-12-24T04:40:25;20.93;;;4.20;;
11064;SDS011;5585;52.530;7.320;2022-12-24T04:42:53;24.90;;;4.77;;
11064;SDS011;5585;52.530;7.320;2022-12-24T04:45:19;18.47;;;3.73;;
11064;SDS011;5585;52.530;7.320;2022-12-24T04:47:46;17.40;;;4.90;;
11064;SDS011;5585;52.530;7.320;2022-12-24T04:50:13;13.80;;;3.60;;
11064;SDS011;5585;52.530;7.320;2022-12-24T04:52:39;24.10;;;4.40;;
11064;SDS011;5585;52.530;7.320;2022-12-24T04:55:06;17.33;;;3.63;;
11064;SDS011;5585;52.530;7.320;2022-12-24T04:57:33;21.07;;;4.27;;
11064;SDS011;5585;52.530;7.320;2022-12-24T05:00:03;18.90;;;3.83;;
11064;SDS011;5585;52.530;7.320;2022-12-24T05:02:30;16.10;;;3.47;;
11064;SDS011;5585;52.530;7.320;2022-12-24T05:04:57;20.57;;;4.80;;
11064;SDS011;5585;52.530;7.320;2022-12-24T05:07:23;14.87;;;3.40;;
11064;SDS011;5585;52.530;7.320;2022-12-24T05:09:50;16.23;;;3.60;;
11064;SDS011;5585;52.530;7.320;2022-12-24T05:12:17;15.90;;;3.90;;
11064;SDS011;5585;52.530;7.320;2022-12-24T05:14:43;18.53;;;3.57;;
11064;SDS011;5585;52.530;7.320;2022-12-24T05:17:11;18.47;;;3.60;;
11064;SDS011;5585;52.530;7.320;2022-12-24T05:19:37;19.23;;;3.10;;
11064;SDS011;5585;52.530;7.320;2022-12-24T05:22:04;22.00;;;4.20;;
11064;SDS011;5585;52.530;7.320;2022-12-24T05:24:48;11.20;;;3.17;;
11064;SDS011;5585;52.530;7.320;2022-12-24T05:27:31;18.37;;;4.03;;
11064;SDS011;5585;52.530;7.320;2022-12-24T05:29:58;15.87;;;3.23;;
11064;SDS011;5585;52.530;7.320;2022-12-24T05:32:26;16.30;;;4.27;;
11064;SDS011;5585;52.530;7.320;2022-12-24T05:34:53;19.83;;;3.93;;
11064;SDS011;5585;52.530;7.320;2022-12-24T05:37:19;20.50;;;4.00;;
11064;SDS011;5585;52.530;7.320;2022-12-24T05:39:46;18.07;;;4.43;;
11064;SDS011;5585;52.530;7.320;2022-12-24T05:42:12;17.17;;;3.77;;
11064;SDS011;5585;52.530;7.320;2022-12-24T05:44:39;17.30;;;3.83;;
11064;SDS011;5585;52.530;7.320;2022-12-24T05:47:05;16.00;;;4.37;;
11064;SDS011;5585;52.530;7.320;2022-12-24T05:49:33;15.87;;;4.50;;
11064;SDS011;5585;52.530;7.320;2022-12-24T05:51:59;29.87;;;5.63;;
11064;SDS011;5585;52.530;7.320;2022-12-24T05:54:26;18.23;;;4.23;;
11064;SDS011;5585;52.530;7.320;2022-12-24T05:56:53;20.00;;;5.07;;
11064;SDS011;5585;52.530;7.320;2022-12-24T05:59:19;19.70;;;4.67;;
11064;SDS011;5585;52.530;7.320;2022-12-24T06:01:46;12.50;;;3.97;;
11064;SDS011;5585;52.530;7.320;2022-12-24T06:04:12;15.97;;;4.47;;
11064;SDS011;5585;52.530;7.320;2022-12-24T06:06:40;17.23;;;4.20;;
11064;SDS011;5585;52.530;7.320;2022-12-24T06:09:06;18.47;;;4.10;;
11064;SDS011;5585;52.530;7.320;2022-12-24T06:11:34;14.03;;;3.90;;
11064;SDS011;5585;52.530;7.320;2022-12-24T06:14:00;15.87;;;4.63;;
11064;SDS011;5585;52.530;7.320;2022-12-24T06:16:27;19.13;;;4.27;;
11064;SDS011;5585;52.530;7.320;2022-12-24T06:18:53;18.30;;;4.07;;
11064;SDS011;5585;52.530;7.320;2022-12-24T06:21:20;16.57;;;3.67;;
11064;SDS011;5585;52.530;7.320;2022-12-24T06:23:48;15.80;;;3.57;;
11064;SDS011;5585;52.530;7.320;2022-12-24T06:26:16;18.60;;;4.67;;
11064;SDS011;5585;52.530;7.320;2022-12-24T06:28:43;16.27;;;3.70;;
11064;SDS011;5585;52.530;7.320;2022-12-24T06:31:10;14.37;;;3.80;;
11064;SDS011;5585;52.530;7.320;2022-12-24T06:33:37;13.70;;;2.93;;
11064;SDS011;5585;52.530;7.320;2022-12-24T06:36:05;16.40;;;3.67;;
11064;SDS011;5585;52.530;7.320;2022-12-24T06:38:31;19.17;;;4.20;;
11064;SDS011;5585;52.530;7.320;2022-12-24T06:41:03;14.90;;;3.50;;
11064;SDS011;5585;52.530;7.320;2022-12-24T06:43:30;13.97;;;3.87;;
11064;SDS011;5585;52.530;7.320;2022-12-24T06:45:58;13.30;;;3.63;;
11064;SDS011;5585;52.530;7.320;2022-12-24T06:48:25;13.13;;;3.53;;
11064;SDS011;5585;52.530;7.320;2022-12-24T06:50:51;15.67;;;4.43;;
11064;SDS011;5585;52.530;7.320;2022-12-24T06:53:18;15.20;;;4.10;;
11064;SDS011;5585;52.530;7.320;2022-12-24T06:55:44;21.17;;;4.73;;
11064;SDS011;5585;52.530;7.320;2022-12-24T06:58:13;15.50;;;4.37;;
11064;SDS011;5585;52.530;7.320;2022-12-24T07:00:39;17.40;;;4.77;;
11064;SDS011;5585;52.530;7.320;2022-12-24T07:03:06;16.00;;;4.20;;
11064;SDS011;5585;52.530;7.320;2022-12-24T07:05:32;13.10;;;4.43;;
11064;SDS011;5585;52.530;7.320;2022-12-24T07:07:59;15.43;;;4.30;;
11064;SDS011;5585;52.530;7.320;2022-12-24T07:10:25;18.13;;;5.00;;
11064;SDS011;5585;52.530;7.320;2022-12-24T07:12:52;13.90;;;3.90;;
11064;SDS011;5585;52.530;7.320;2022-12-24T07:15:20;13.63;;;4.40;;
11064;SDS011;5585;52.530;7.320;2022-12-24T07:17:46;18.60;;;5.97;;
11064;SDS011;5585;52.530;7.320;2022-12-24T07:20:13;19.23;;;4.87;;
11064;SDS011;5585;52.530;7.320;2022-12-24T07:22:40;24.10;;;6.17;;
11064;SDS011;5585;52.530;7.320;2022-12-24T07:25:07;22.40;;;5.17;;
11064;SDS011;5585;52.530;7.320;2022-12-24T07:27:33;18.60;;;5.83;;
11064;SDS011;5585;52.530;7.320;2022-12-24T07:30:00;21.70;;;6.77;;
11064;SDS011;5585;52.530;7.320;2022-12-24T07:32:28;16.73;;;5.40;;
11064;SDS011;5585;52.530;7.320;2022-12-24T07:34:54;18.77;;;6.20;;
11064;SDS011;5585;52.530;7.320;2022-12-24T07:37:21;22.00;;;6.17;;
11064;SDS011;5585;52.530;7.320;2022-12-24T07:39:47;22.20;;;5.70;;
11064;SDS011;5585;52.530;7.320;2022-12-24T07:42:14;21.70;;;7.00;;
11064;SDS011;5585;52.530;7.320;2022-12-24T07:44:41;27.17;;;8.23;;
11064;SDS011;5585;52.530;7.320;2022-12-24T07:47:10;18.60;;;6.87;;
11064;SDS011;5585;52.530;7.320;2022-12-24T07:49:38;14.87;;;6.63;;
11064;SDS011;5585;52.530;7.320;2022-12-24T07:52:04;19.73;;;7.07;;
11064;SDS011;5585;52.530;7.320;2022-12-24T07:54:31;19.47;;;6.43;;
11064;SDS011;5585;52.530;7.320;2022-12-24T07:56:57;20.67;;;6.73;;
11064;SDS011;5585;52.530;7.320;2022-12-24T07:59:24;19.33;;;6.57;;
11064;SDS011;5585;52.530;7.320;2022-12-24T08:01:51;18.50;;;7.30;;
11064;SDS011;5585;52.530;7.320;2022-12-24T08:04:17;19.03;;;6.23;;
11064;SDS011;5585;52.530;7.320;2022-12-24T08:06:45;21.20;;;6.63;;
11064;SDS011;5585;52.530;7.320;2022-12-24T08:09:12;20.63;;;7.20;;
11064;SDS011;5585;52.530;7.320;2022-12-24T08:11:39;15.30;;;5.70;;
11064;SDS011;5585;52.530;7.320;2022-12-24T08:14:06;19.83;;;6.10;;
11064;SDS011;5585;52.530;7.320;2022-12-24T08:16:32;17.67;;;5.67;;
11064;SDS011;5585;52.530;7.320;2022-12-24T08:19:02;15.60;;;6.13;;
11064;SDS011;5585;52.530;7.320;2022-12-24T08:21:28;17.37;;;5.93;;
11064;SDS011;5585;52.530;7.320;2022-12-24T08:23:56;14.63;;;5.37;;
11064;SDS011;5585;52.530;7.320;2022-12-24T08:26:23;17.40;;;6.03;;
11064;SDS011;5585;52.530;7.320;2022-12-24T08:28:49;15.87;;;6.13;;
11064;SDS011;5585;52.530;7.320;2022-12-24T08:31:16;20.90;;;7.20;;
11064;SDS011;5585;52.530;7.320;2022-12-24T08:33:44;14.37;;;5.50;;
11064;SDS011;5585;52.530;7.320;2022-12-24T08:36:10;17.57;;;6.07;;
11064;SDS011;5585;52.530;7.320;2022-12-24T08:38:37;13.67;;;5.50;;
11064;SDS011;5585;52.530;7.320;2022-12-24T08:41:07;18.13;;;6.20;;
11064;SDS011;5585;52.530;7.320;2022-12-24T08:43:47;16.67;;;6.67;;
11064;SDS011;5585;52.530;7.320;2022-12-24T08:46:14;22.43;;;6.67;;
11064;SDS011;5585;52.530;7.320;2022-12-24T08:48:40;17.07;;;6.10;;
11064;SDS011;5585;52.530;7.320;2022-12-24T08:51:07;14.77;;;6.27;;
11064;SDS011;5585;52.530;7.320;2022-12-24T08:53:34;17.77;;;6.23;;
11064;SDS011;5585;52.530;7.320;2022-12-24T08:56:01;16.10;;;6.17;;
11064;SDS011;5585;52.530;7.320;2022-12-24T08:58:30;21.20;;;6.50;;
11064;SDS011;5585;52.530;7.320;2022-12-24T09:00:57;22.50;;;6.60;;
11064;SDS011;5585;52.530;7.320;2022-12-24T09:03:24;15.63;;;5.27;;
11064;SDS011;5585;52.530;7.320;2022-12-24T09:05:50;15.83;;;5.57;;
11064;SDS011;5585;52.530;7.320;2022-12-24T09:08:18;15.07;;;5.00;;
11064;SDS011;5585;52.530;7.320;2022-12-24T09:10:44;15.17;;;4.73;;
11064;SDS011;5585;52.530;7.320;2022-12-24T09:13:11;17.57;;;5.37;;
11064;SDS011;5585;52.530;7.320;2022-12-24T09:15:39;20.20;;;5.53;;
11064;SDS011;5585;52.530;7.320;2022-12-24T09:18:05;15.47;;;5.43;;
11064;SDS011;5585;52.530;7.320;2022-12-24T09:20:32;13.03;;;5.17;;
11064;SDS011;5585;52.530;7.320;2022-12-24T09:22:58;13.27;;;4.73;;
11064;SDS011;5585;52.530;7.320;2022-12-24T09:25:25;14.70;;;5.27;;
11064;SDS011;5585;52.530;7.320;2022-12-24T09:27:51;15.40;;;5.40;;
11064;SDS011;5585;52.530;7.320;2022-12-24T09:30:18;18.17;;;5.17;;
11064;SDS011;5585;52.530;7.320;2022-12-24T09:32:46;21.37;;;6.30;;
11064;SDS011;5585;52.530;7.320;2022-12-24T09:35:13;20.73;;;5.67;;
11064;SDS011;5585;52.530;7.320;2022-12-24T09:37:39;15.77;;;5.27;;
11064;SDS011;5585;52.530;7.320;2022-12-24T09:40:06;15.03;;;5.87;;
11064;SDS011;5585;52.530;7.320;2022-12-24T09:42:36;17.70;;;5.50;;
11064;SDS011;5585;52.530;7.320;2022-12-24T09:45:05;17.53;;;5.17;;
11064;SDS011;5585;52.530;7.320;2022-12-24T09:47:34;18.67;;;5.30;;
11064;SDS011;5585;52.530;7.320;2022-12-24T09:50:06;19.73;;;5.33;;
11064;SDS011;5585;52.530;7.320;2022-12-24T09:52:43;12.83;;;4.80;;
11064;SDS011;5585;52.530;7.320;2022-12-24T09:55:13;20.17;;;6.17;;
11064;SDS011;5585;52.530;7.320;2022-12-24T09:57:41;16.93;;;5.50;;
11064;SDS011;5585;52.530;7.320;2022-12-24T10:00:15;20.03;;;5.83;;
11064;SDS011;5585;52.530;7.320;2022-12-24T10:02:43;15.43;;;5.53;;
11064;SDS011;5585;52.530;7.320;2022-12-24T10:05:13;16.07;;;6.43;;
11064;SDS011;5585;52.530;7.320;2022-12-24T10:07:42;22.93;;;5.93;;
11064;SDS011;5585;52.530;7.320;2022-12-24T10:10:13;22.57;;;6.47;;
11064;SDS011;5585;52.530;7.320;2022-12-24T10:12:42;17.07;;;5.47;;
11064;SDS011;5585;52.530;7.320;2022-12-24T10:15:14;18.97;;;6.87;;
11064;SDS011;5585;52.530;7.320;2022-12-24T10:17:47;22.50;;;6.30;;
11064;SDS011;5585;52.530;7.320;2022-12-24T10:20:22;16.43;;;6.03;;
11064;SDS011;5585;52.530;7.320;2022-12-24T10:22:52;18.43;;;5.80;;
11064;SDS011;5585;52.530;7.320;2022-12-24T10:25:20;16.07;;;6.30;;
11064;SDS011;5585;52.530;7.320;2022-12-24T10:27:49;18.63;;;6.33;;
11064;SDS011;5585;52.530;7.320;2022-12-24T10:30:17;18.10;;;5.43;;
11064;SDS011;5585;52.530;7.320;2022-12-24T10:32:46;20.80;;;5.80;;
11064;SDS011;5585;52.530;7.320;2022-12-24T10:35:16;20.57;;;5.37;;
11064;SDS011;5585;52.530;7.320;2022-12-24T10:37:46;15.23;;;5.13;;
11064;SDS011;5585;52.530;7.320;2022-12-24T10:40:23;15.80;;;5.13;;
11064;SDS011;5585;52.530;7.320;2022-12-24T10:42:51;19.87;;;5.70;;
11064;SDS011;5585;52.530;7.320;2022-12-24T10:45:19;16.87;;;6.30;;
11064;SDS011;5585;52.530;7.320;2022-12-24T10:47:47;26.07;;;7.10;;
11064;SDS011;5585;52.530;7.320;2022-12-24T10:50:15;16.40;;;5.40;;
11064;SDS011;5585;52.530;7.320;2022-12-24T10:52:43;13.63;;;5.10;;
11064;SDS011;5585;52.530;7.320;2022-12-24T10:55:20;22.17;;;6.13;;
11064;SDS011;5585;52.530;7.320;2022-12-24T10:57:55;16.70;;;4.97;;
11064;SDS011;5585;52.530;7.320;2022-12-24T11:00:23;16.13;;;5.07;;
11064;SDS011;5585;52.530;7.320;2022-12-24T11:03:04;20.63;;;5.40;;
11064;SDS011;5585;52.530;7.320;2022-12-24T11:05:31;19.87;;;5.23;;
11064;SDS011;5585;52.530;7.320;2022-12-24T11:07:58;23.07;;;6.30;;
11064;SDS011;5585;52.530;7.320;2022-12-24T11:10:27;17.23;;;5.03;;
11064;SDS011;5585;52.530;7.320;2022-12-24T11:12:53;16.27;;;5.77;;
11064;SDS011;5585;52.530;7.320;2022-12-24T11:15:21;20.40;;;5.70;;
11064;SDS011;5585;52.530;7.320;2022-12-24T11:17:51;19.20;;;5.03;;
11064;SDS011;5585;52.530;7.320;2022-12-24T11:20:19;24.57;;;6.50;;
11064;SDS011;5585;52.530;7.320;2022-12-24T11:22:48;27.33;;;6.23;;
11064;SDS011;5585;52.530;7.320;2022-12-24T11:25:18;19.07;;;5.63;;
11064;SDS011;5585;52.530;7.320;2022-12-24T11:27:47;20.93;;;5.10;;
11064;SDS011;5585;52.530;7.320;2022-12-24T11:30:20;24.50;;;6.70;;
11064;SDS011;5585;52.530;7.320;2022-12-24T11:32:47;17.90;;;5.63;;
11064;SDS011;5585;52.530;7.320;2022-12-24T11:35:18;20.03;;;5.87;;
11064;SDS011;5585;52.530;7.320;2022-12-24T11:37:46;22.07;;;5.93;;
11064;SDS011;5585;52.530;7.320;2022-12-24T11:40:18;21.57;;;6.20;;
11064;SDS011;5585;52.530;7.320;2022-12-24T11:42:46;19.50;;;5.50;;
11064;SDS011;5585;52.530;7.320;2022-12-24T11:45:18;28.30;;;6.40;;
11064;SDS011;5585;52.530;7.320;2022-12-24T11:47:45;22.13;;;5.73;;
11064;SDS011;5585;52.530;7.320;2022-12-24T11:50:18;17.43;;;4.97;;
11064;SDS011;5585;52.530;7.320;2022-12-24T11:52:46;23.77;;;6.10;;
11064;SDS011;5585;52.530;7.320;2022-12-24T11:55:15;21.30;;;6.37;;
11064;SDS011;5585;52.530;7.320;2022-12-24T11:57:45;17.10;;;4.77;;
11064;SDS011;5585;52.530;7.320;2022-12-24T12:00:14;20.10;;;5.00;;
11064;SDS011;5585;52.530;7.320;2022-12-24T12:02:41;21.37;;;6.27;;
11064;SDS011;5585;52.530;7.320;2022-12-24T12:05:09;23.40;;;6.23;;
11064;SDS011;5585;52.530;7.320;2022-12-24T12:07:37;20.57;;;5.20;;
11064;SDS011;5585;52.530;7.320;2022-12-24T12:10:04;18.60;;;4.23;;
11064;SDS011;5585;52.530;7.320;2022-12-24T12:12:32;18.93;;;4.60;;
11064;SDS011;5585;52.530;7.320;2022-12-24T12:14:59;17.93;;;4.83;;
11064;SDS011;5585;52.530;7.320;2022-12-24T12:17:30;20.33;;;4.80;;
11064;SDS011;5585;52.530;7.320;2022-12-24T12:19:59;19.93;;;4.97;;
11064;SDS011;5585;52.530;7.320;2022-12-24T12:22:29;17.03;;;5.00;;
11064;SDS011;5585;52.530;7.320;2022-12-24T12:24:58;17.90;;;5.03;;
11064;SDS011;5585;52.530;7.320;2022-12-24T12:27:26;17.23;;;4.37;;
11064;SDS011;5585;52.530;7.320;2022-12-24T12:29:55;20.87;;;5.27;;
11064;SDS011;5585;52.530;7.320;2022-12-24T12:32:24;20.20;;;4.77;;
11064;SDS011;5585;52.530;7.320;2022-12-24T12:34:57;16.57;;;4.27;;
11064;SDS011;5585;52.530;7.320;2022-12-24T12:37:27;15.07;;;3.93;;
11064;SDS011;5585;52.530;7.320;2022-12-24T12:39:55;16.50;;;3.60;;
11064;SDS011;5585;52.530;7.320;2022-12-24T12:42:24;16.77;;;4.30;;
11064;SDS011;5585;52.530;7.320;2022-12-24T12:45:00;14.73;;;3.77;;
11064;SDS011;5585;52.530;7.320;2022-12-24T12:47:35;14.47;;;2.97;;
11064;SDS011;5585;52.530;7.320;2022-12-24T12:50:08;12.97;;;3.00;;
11064;SDS011;5585;52.530;7.320;2022-12-24T12:52:43;8.60;;;2.63;;
11064;SDS011;5585;52.530;7.320;2022-12-24T12:55:18;11.30;;;3.07;;
11064;SDS011;5585;52.530;7.320;2022-12-24T12:57:47;11.17;;;2.83;;
11064;SDS011;5585;52.530;7.320;2022-12-24T13:00:15;13.70;;;3.00;;
11064;SDS011;5585;52.530;7.320;2022-12-24T13:02:59;9.77;;;2.80;;
11064;SDS011;5585;52.530;7.320;2022-12-24T13:08:20;13.37;;;3.60;;
11064;SDS011;5585;52.530;7.320;2022-12-24T13:17:04;12.90;;;2.90;;
11064;SDS011;5585;52.530;7.320;2022-12-24T13:19:37;16.30;;;3.70;;
11064;SDS011;5585;52.530;7.320;2022-12-24T13:22:12;9.50;;;2.80;;
11064;SDS011;5585;52.530;7.320;2022-12-24T13:24:42;16.07;;;3.60;;
11064;SDS011;5585;52.530;7.320;2022-12-24T13:27:14;15.27;;;2.73;;
11064;SDS011;5585;52.530;7.320;2022-12-24T13:29:43;14.30;;;3.03;;
11064;SDS011;5585;52.530;7.320;2022-12-24T13:34:55;9.50;;;2.60;;
11064;SDS011;5585;52.530;7.320;2022-12-24T13:37:30;9.50;;;2.57;;
11064;SDS011;5585;52.530;7.320;2022-12-24T13:40:15;10.60;;;2.87;;
11064;SDS011;5585;52.530;7.320;2022-12-24T13:42:45;11.27;;;4.00;;
11064;SDS011;5585;52.530;7.320;2022-12-24T13:47:57;13.43;;;3.23;;
11064;SDS011;5585;52.530;7.320;2022-12-24T13:50:27;12.13;;;2.90;;
11064;SDS011;5585;52.530;7.320;2022-12-24T13:52:55;10.43;;;3.20;;
11064;SDS011;5585;52.530;7.320;2022-12-24T13:55:23;10.53;;;3.17;;
11064;SDS011;5585;52.530;7.320;2022-12-24T13:57:53;11.97;;;3.10;;
11064;SDS011;5585;52.530;7.320;2022-12-24T14:00:25;12.40;;;3.27;;
11064;SDS011;5585;52.530;7.320;2022-12-24T14:02:54;11.83;;;3.00;;
11064;SDS011;5585;52.530;7.320;2022-12-24T14:05:22;13.30;;;3.87;;
11064;SDS011;5585;52.530;7.320;2022-12-24T14:07:50;13.77;;;3.03;;
11064;SDS011;5585;52.530;7.320;2022-12-24T14:10:20;9.53;;;3.10;;
11064;SDS011;5585;52.530;7.320;2022-12-24T14:12:50;12.40;;;3.60;;
11064;SDS011;5585;52.530;7.320;2022-12-24T14:18:02;17.73;;;4.57;;
11064;SDS011;5585;52.530;7.320;2022-12-24T14:20:29;17.40;;;4.83;;
11064;SDS011;5585;52.530;7.320;2022-12-24T14:22:56;10.57;;;3.77;;
11064;SDS011;5585;52.530;7.320;2022-12-24T14:25:23;16.20;;;4.30;;
11064;SDS011;5585;52.530;7.320;2022-12-24T14:27:52;18.43;;;4.23;;
11064;SDS011;5585;52.530;7.320;2022-12-24T14:30:20;12.97;;;3.57;;
11064;SDS011;5585;52.530;7.320;2022-12-24T14:32:48;13.03;;;3.23;;
11064;SDS011;5585;52.530;7.320;2022-12-24T14:35:15;13.20;;;3.53;;
11064;SDS011;5585;52.530;7.320;2022-12-24T14:37:44;11.40;;;3.27;;
11064;SDS011;5585;52.530;7.320;2022-12-24T14:40:13;10.73;;;3.30;;
11064;SDS011;5585;52.530;7.320;2022-12-24T14:42:41;8.77;;;3.23;;
11064;SDS011;5585;52.530;7.320;2022-12-24T14:45:16;8.03;;;3.03;;
11064;SDS011;5585;52.530;7.320;2022-12-24T14:47:46;11.07;;;3.53;;
11064;SDS011;5585;52.530;7.320;2022-12-24T14:50:27;10.23;;;3.47;;
11064;SDS011;5585;52.530;7.320;2022-12-24T14:52:58;10.30;;;3.67;;
11064;SDS011;5585;52.530;7.320;2022-12-24T14:55:30;9.47;;;3.70;;
11064;SDS011;5585;52.530;7.320;2022-12-24T14:58:16;9.70;;;3.27;;
11064;SDS011;5585;52.530;7.320;2022-12-24T15:00:44;12.13;;;3.73;;
11064;SDS011;5585;52.530;7.320;2022-12-24T15:03:12;11.27;;;3.70;;
11064;SDS011;5585;52.530;7.320;2022-12-24T15:05:39;13.57;;;3.73;;
11064;SDS011;5585;52.530;7.320;2022-12-24T15:08:13;10.00;;;3.10;;
11064;SDS011;5585;52.530;7.320;2022-12-24T15:10:41;12.23;;;3.93;;
11064;SDS011;5585;52.530;7.320;2022-12-24T15:13:13;11.90;;;3.43;;
11064;SDS011;5585;52.530;7.320;2022-12-24T15:15:46;11.67;;;2.73;;